Time;durP1;ratioP1;P1;durP2;ratioP2;P2;SDS_P1;SDS_P2;PMS_P1;PMS_P2;Temp;Humidity;BMP_temperature;BMP_pressure;BME280_temperature;BME280_humidity;BME280_pressure;Samples;Min_cycle;Max_cycle;Signal;HPM_P1;HPM_P2
2023/04/29 00:01:51;;;;;;;8.10;4.57;;;22.90;47.60;;;;;;5038039;28;20048;-64
2023/04/29 00:04:17;;;;;;;7.07;4.05;;;22.90;47.60;;;;;;5039679;28;20033;-64
2023/04/29 00:06:43;;;;;;;7.63;4.35;;;22.80;47.60;;;;;;5036992;28;20055;-64
2023/04/29 00:09:09;;;;;;;8.77;4.20;;;22.80;47.60;;;;;;5039167;28;20505;-63
2023/04/29 00:11:34;;;;;;;7.85;4.18;;;22.80;47.60;;;;;;5038980;28;20032;-65
2023/04/29 00:14:00;;;;;;;8.27;4.28;;;22.80;47.60;;;;;;5038086;28;20378;-63
2023/04/29 00:16:26;;;;;;;7.78;4.45;;;22.80;47.60;;;;;;5039135;28;20032;-64
2023/04/29 00:18:51;;;;;;;7.45;3.97;;;22.80;47.70;;;;;;5037694;28;20036;-65
2023/04/29 00:21:17;;;;;;;7.20;4.13;;;22.70;47.60;;;;;;5038019;28;20032;-64
2023/04/29 00:23:43;;;;;;;7.28;4.18;;;22.80;47.70;;;;;;5037244;28;20034;-65
2023/04/29 00:26:08;;;;;;;7.00;3.80;;;22.70;47.60;;;;;;5039485;28;20055;-64
2023/04/29 00:28:34;;;;;;;8.82;4.30;;;22.70;47.60;;;;;;5040513;28;20119;-64
2023/04/29 00:31:00;;;;;;;6.57;3.97;;;22.70;47.60;;;;;;5039996;28;20233;-63
2023/04/29 00:33:25;;;;;;;6.25;3.85;;;22.70;47.70;;;;;;5037989;28;20057;-64
2023/04/29 00:35:51;;;;;;;7.43;4.28;;;22.70;47.70;;;;;;5036533;28;20021;-64
2023/04/29 00:38:17;;;;;;;6.22;3.67;;;22.70;47.60;;;;;;5040406;28;20021;-63
2023/04/29 00:40:43;;;;;;;7.30;4.20;;;22.70;47.70;;;;;;5042232;28;20036;-64
2023/04/29 00:43:09;;;;;;;8.13;4.18;;;22.70;47.70;;;;;;5040297;28;20557;-63
2023/04/29 00:45:34;;;;;;;6.80;3.55;;;22.70;47.70;;;;;;5041036;28;20078;-64
2023/04/29 00:48:00;;;;;;;6.15;3.40;;;22.70;47.70;;;;;;5037493;28;20056;-64
2023/04/29 00:50:26;;;;;;;6.25;3.40;;;22.60;47.60;;;;;;5036117;28;20029;-64
2023/04/29 00:52:52;;;;;;;6.32;3.50;;;22.60;47.70;;;;;;5039859;28;20454;-64
2023/04/29 00:55:18;;;;;;;7.95;3.85;;;22.60;47.70;;;;;;5038296;28;20029;-63
2023/04/29 00:57:47;;;;;;;6.45;3.42;;;22.60;47.70;;;;;;5039580;28;20041;-64
2023/04/29 01:00:13;;;;;;;6.72;3.67;;;22.60;47.70;;;;;;5038537;28;20025;-64
2023/04/29 01:02:39;;;;;;;5.70;3.33;;;22.60;47.70;;;;;;5037253;28;20021;-63
2023/04/29 01:05:05;;;;;;;6.32;3.50;;;22.60;47.70;;;;;;5033921;28;20652;-64
2023/04/29 01:07:38;;;;;;;6.18;3.70;;;22.60;47.80;;;;;;5034531;28;20539;-64
2023/04/29 01:10:33;;;;;;;6.13;3.45;;;22.60;47.80;;;;;;5034507;28;20419;-62
2023/04/29 01:13:17;;;;;;;5.95;3.33;;;22.60;47.80;;;;;;5031747;28;20144;-64
2023/04/29 01:16:02;;;;;;;6.03;3.40;;;22.60;47.80;;;;;;5037061;28;20472;-63
2023/04/29 01:18:42;;;;;;;6.40;3.58;;;22.60;47.80;;;;;;5037172;28;20198;-64
2023/04/29 01:21:08;;;;;;;5.85;3.40;;;22.60;47.80;;;;;;5039980;28;20048;-63
2023/04/29 01:23:33;;;;;;;6.55;3.55;;;22.50;47.70;;;;;;5039048;28;20029;-64
2023/04/29 01:25:59;;;;;;;6.05;3.38;;;22.50;47.80;;;;;;5039333;28;20064;-62
2023/04/29 01:28:31;;;;;;;6.28;3.50;;;22.50;47.70;;;;;;5036703;28;20549;-64
2023/04/29 01:31:23;;;;;;;5.50;3.63;;;22.50;47.80;;;;;;5038447;28;20078;-65
2023/04/29 01:34:18;;;;;;;5.95;3.72;;;22.50;47.80;;;;;;5038132;28;20116;-64
2023/04/29 01:37:13;;;;;;;6.50;3.55;;;22.50;47.80;;;;;;5028869;28;20108;-64
2023/04/29 01:39:59;;;;;;;5.68;2.85;;;22.50;47.80;;;;;;5036510;28;20021;-64
2023/04/29 01:42:37;;;;;;;5.53;3.22;;;22.50;47.80;;;;;;5038044;28;20517;-64
2023/04/29 01:45:07;;;;;;;5.07;3.08;;;22.50;47.90;;;;;;5037025;28;20025;-63
2023/04/29 01:47:34;;;;;;;6.03;3.50;;;22.50;47.90;;;;;;5036926;28;20075;-64
2023/04/29 01:50:01;;;;;;;5.68;3.28;;;22.40;47.80;;;;;;5039069;28;20108;-64
2023/04/29 01:52:27;;;;;;;5.72;3.53;;;22.40;47.80;;;;;;5037371;28;20523;-63
2023/04/29 01:54:53;;;;;;;5.28;3.35;;;22.40;47.90;;;;;;5037691;28;20029;-64
2023/04/29 01:57:19;;;;;;;6.25;3.70;;;22.40;47.90;;;;;;5038627;28;20024;-64
2023/04/29 01:59:44;;;;;;;5.63;3.33;;;22.40;47.90;;;;;;5038163;28;20079;-64
2023/04/29 02:02:10;;;;;;;5.35;3.00;;;22.40;47.90;;;;;;5038516;28;20207;-64
2023/04/29 02:04:36;;;;;;;5.82;3.28;;;22.40;47.90;;;;;;5040323;28;20029;-64
2023/04/29 02:07:02;;;;;;;4.18;2.63;;;22.40;47.90;;;;;;5037749;28;20037;-64
2023/04/29 02:09:28;;;;;;;4.82;2.97;;;22.40;47.90;;;;;;5036681;28;20839;-65
2023/04/29 02:11:54;;;;;;;5.18;3.00;;;22.40;47.90;;;;;;5043871;28;20029;-64
2023/04/29 02:14:19;;;;;;;4.63;3.00;;;22.30;47.90;;;;;;5036982;28;20029;-64
2023/04/29 02:16:45;;;;;;;4.80;3.10;;;22.40;47.90;;;;;;5036906;28;20021;-64
2023/04/29 02:19:11;;;;;;;4.88;2.67;;;22.30;47.90;;;;;;5037373;28;20029;-64
2023/04/29 02:21:38;;;;;;;4.50;2.67;;;22.30;47.90;;;;;;5037142;28;20059;-64
2023/04/29 02:24:04;;;;;;;4.80;2.78;;;22.30;47.90;;;;;;5034723;28;20564;-64
2023/04/29 02:26:30;;;;;;;4.65;3.00;;;22.30;47.90;;;;;;5035965;28;20116;-64
2023/04/29 02:28:56;;;;;;;4.22;2.53;;;22.30;47.90;;;;;;5040079;28;20040;-64
2023/04/29 02:31:22;;;;;;;4.80;2.97;;;22.30;47.90;;;;;;5040210;28;20366;-64
2023/04/29 02:33:48;;;;;;;4.85;2.90;;;22.30;47.90;;;;;;5036644;28;20128;-65
2023/04/29 02:36:13;;;;;;;5.05;2.95;;;22.40;48.00;;;;;;5038128;28;20135;-63
2023/04/29 02:38:39;;;;;;;4.43;2.60;;;22.30;47.90;;;;;;5040418;28;20108;-63
2023/04/29 02:41:04;;;;;;;4.82;2.92;;;22.30;48.00;;;;;;5044265;28;20030;-64
2023/04/29 02:43:30;;;;;;;4.03;2.50;;;22.30;47.90;;;;;;5041934;28;20033;-64
2023/04/29 02:45:56;;;;;;;5.03;2.67;;;22.30;48.00;;;;;;5040878;28;20063;-64
2023/04/29 02:48:22;;;;;;;4.85;2.90;;;22.20;48.00;;;;;;5037542;28;20021;-63
2023/04/29 02:50:48;;;;;;;4.65;2.53;;;22.30;48.00;;;;;;5040185;28;20418;-64
2023/04/29 02:53:13;;;;;;;5.43;2.90;;;22.20;48.00;;;;;;5040226;28;20014;-64
2023/04/29 02:55:39;;;;;;;4.97;3.00;;;22.20;48.00;;;;;;5043084;28;20503;-64
2023/04/29 02:58:04;;;;;;;3.88;2.50;;;22.20;48.00;;;;;;5039891;28;20037;-64
2023/04/29 03:00:30;;;;;;;5.70;2.85;;;22.30;48.00;;;;;;5040091;28;20031;-63
2023/04/29 03:02:56;;;;;;;4.50;2.45;;;22.30;48.10;;;;;;5040269;28;20676;-63
2023/04/29 03:05:21;;;;;;;4.40;2.53;;;22.20;48.10;;;;;;5039353;28;20167;-64
2023/04/29 03:07:47;;;;;;;4.45;2.50;;;22.20;48.10;;;;;;5037926;28;20033;-64
2023/04/29 03:10:13;;;;;;;4.70;2.75;;;22.20;48.60;;;;;;5040363;28;20109;-65
2023/04/29 03:12:39;;;;;;;5.22;2.85;;;22.20;48.10;;;;;;5038615;28;20084;-63
2023/04/29 03:15:06;;;;;;;3.90;2.55;;;22.20;48.10;;;;;;5041196;28;20029;-65
2023/04/29 03:17:32;;;;;;;4.78;2.55;;;22.20;48.10;;;;;;5042630;28;20090;-64
2023/04/29 03:19:58;;;;;;;3.78;2.42;;;22.20;48.10;;;;;;5037853;28;20033;-63
2023/04/29 03:22:23;;;;;;;4.78;2.50;;;22.20;48.10;;;;;;5038774;28;20405;-64
2023/04/29 03:24:49;;;;;;;4.03;2.38;;;22.20;48.20;;;;;;5040692;28;20100;-64
2023/04/29 03:27:15;;;;;;;4.28;2.40;;;22.20;48.20;;;;;;5040433;28;20037;-64
2023/04/29 03:29:40;;;;;;;4.10;2.40;;;22.20;48.20;;;;;;5039331;28;20061;-64
2023/04/29 03:32:06;;;;;;;4.07;2.40;;;22.20;48.70;;;;;;5037918;28;20052;-64
2023/04/29 03:34:32;;;;;;;4.47;2.42;;;22.20;48.20;;;;;;5041331;28;20033;-64
2023/04/29 03:36:57;;;;;;;4.13;2.17;;;22.10;48.10;;;;;;5039111;28;20465;-63
2023/04/29 03:39:23;;;;;;;4.13;2.40;;;22.20;48.20;;;;;;5039334;28;20033;-64
2023/04/29 03:41:49;;;;;;;4.40;2.78;;;22.10;48.20;;;;;;5040356;28;20105;-64
2023/04/29 03:44:14;;;;;;;3.95;2.35;;;22.20;48.30;;;;;;5039267;28;20551;-64
2023/04/29 03:46:40;;;;;;;5.05;2.50;;;22.10;48.20;;;;;;5036493;28;20398;-65
2023/04/29 03:49:06;;;;;;;3.97;2.30;;;22.10;48.20;;;;;;5039041;28;20480;-64
2023/04/29 03:51:31;;;;;;;3.58;2.22;;;22.10;48.30;;;;;;5040102;28;20069;-63
2023/04/29 03:53:58;;;;;;;3.72;2.10;;;22.10;48.30;;;;;;5040019;28;20119;-63
2023/04/29 03:56:26;;;;;;;4.13;2.40;;;22.10;48.30;;;;;;5041348;28;20083;-63
2023/04/29 03:58:52;;;;;;;4.20;2.55;;;22.10;48.30;;;;;;5040120;28;20180;-63
2023/04/29 04:01:18;;;;;;;3.67;2.20;;;22.10;48.30;;;;;;5036465;28;20192;-65
2023/04/29 04:03:44;;;;;;;3.75;2.33;;;22.10;48.30;;;;;;5040428;28;20029;-64
2023/04/29 04:06:09;;;;;;;3.50;2.15;;;22.10;48.40;;;;;;5038576;28;20021;-64
2023/04/29 04:08:35;;;;;;;3.88;2.42;;;22.10;48.40;;;;;;5036770;28;20522;-64
2023/04/29 04:11:03;;;;;;;3.72;2.40;;;22.10;48.40;;;;;;5046621;28;20108;-64
2023/04/29 04:13:29;;;;;;;3.80;2.38;;;22.10;48.40;;;;;;5041970;28;20049;-63
2023/04/29 04:15:54;;;;;;;4.82;2.58;;;22.10;48.40;;;;;;5038230;28;20060;-63
2023/04/29 04:18:20;;;;;;;3.78;2.30;;;22.10;48.40;;;;;;5038989;28;20488;-64
2023/04/29 04:20:46;;;;;;;3.83;2.30;;;22.10;48.40;;;;;;5037503;28;20093;-63
2023/04/29 04:23:12;;;;;;;3.38;2.00;;;22.10;48.40;;;;;;5037669;28;20496;-64
2023/04/29 04:25:37;;;;;;;4.55;2.50;;;22.10;48.40;;;;;;5042948;28;20056;-65
2023/04/29 04:28:03;;;;;;;3.38;2.13;;;22.10;48.40;;;;;;5039728;28;20064;-65
2023/04/29 04:30:29;;;;;;;3.38;2.13;;;22.10;48.50;;;;;;5037674;28;20026;-65
2023/04/29 04:32:54;;;;;;;3.13;1.88;;;22.10;48.50;;;;;;5038772;28;20108;-64
2023/04/29 04:35:21;;;;;;;4.38;2.30;;;22.10;48.50;;;;;;5040979;28;20077;-64
2023/04/29 04:37:47;;;;;;;3.83;2.20;;;22.10;48.50;;;;;;5041267;28;20079;-64
2023/04/29 04:40:12;;;;;;;3.20;1.90;;;22.10;48.50;;;;;;5038916;28;20373;-64
2023/04/29 04:42:38;;;;;;;3.65;2.30;;;22.10;48.60;;;;;;5043110;28;20389;-65
2023/04/29 04:45:05;;;;;;;3.78;2.20;;;22.10;48.60;;;;;;5040678;28;20026;-64
2023/04/29 04:47:30;;;;;;;3.70;2.22;;;22.10;48.60;;;;;;5038475;28;20199;-65
2023/04/29 04:49:56;;;;;;;3.45;2.20;;;22.10;48.60;;;;;;5042980;28;20029;-64
2023/04/29 04:52:22;;;;;;;3.75;2.10;;;22.10;48.60;;;;;;5034546;28;20068;-64
2023/04/29 04:54:47;;;;;;;3.88;2.17;;;22.00;48.50;;;;;;5038525;28;20329;-64
2023/04/29 04:57:13;;;;;;;3.80;2.13;;;22.00;48.50;;;;;;5037774;28;20036;-64
2023/04/29 04:59:38;;;;;;;4.35;2.30;;;22.00;48.50;;;;;;5038860;28;20025;-64
2023/04/29 05:02:04;;;;;;;3.05;1.77;;;22.00;48.60;;;;;;5037459;28;20067;-64
2023/04/29 05:04:30;;;;;;;3.38;1.85;;;22.00;48.60;;;;;;5038537;28;20495;-64
2023/04/29 05:06:55;;;;;;;2.55;1.60;;;22.00;48.60;;;;;;5037795;28;20468;-64
2023/04/29 05:09:21;;;;;;;3.85;2.20;;;22.00;48.60;;;;;;5037025;28;20104;-65
2023/04/29 05:11:47;;;;;;;3.30;1.83;;;22.00;48.60;;;;;;5038391;28;20393;-65
2023/04/29 05:14:12;;;;;;;3.53;1.88;;;22.00;48.60;;;;;;5039884;28;20079;-64
2023/04/29 05:16:38;;;;;;;3.40;1.83;;;22.00;48.60;;;;;;5037578;28;20068;-64
2023/04/29 05:19:03;;;;;;;3.17;2.00;;;22.00;48.60;;;;;;5036790;28;20065;-64
2023/04/29 05:21:30;;;;;;;3.67;2.05;;;22.00;48.60;;;;;;5037354;28;20102;-64
2023/04/29 05:23:56;;;;;;;3.67;2.00;;;22.00;48.60;;;;;;5036721;28;20049;-66
2023/04/29 05:26:22;;;;;;;2.97;1.88;;;22.00;48.60;;;;;;5039005;28;20041;-65
2023/04/29 05:28:47;;;;;;;3.42;2.00;;;22.00;48.60;;;;;;5038259;28;20091;-65
2023/04/29 05:31:13;;;;;;;3.10;1.75;;;22.00;48.60;;;;;;5042089;28;20478;-65
2023/04/29 05:33:38;;;;;;;3.75;1.80;;;22.00;48.60;;;;;;5039576;28;20057;-64
2023/04/29 05:36:05;;;;;;;4.00;2.00;;;22.00;48.60;;;;;;5038821;28;20029;-65
2023/04/29 05:38:31;;;;;;;3.15;1.88;;;22.00;48.60;;;;;;5036291;28;20453;-64
2023/04/29 05:40:57;;;;;;;4.07;2.13;;;22.00;48.70;;;;;;5038723;28;20045;-62
2023/04/29 05:43:23;;;;;;;3.20;1.83;;;22.00;48.70;;;;;;5038031;28;20021;-64
2023/04/29 05:45:48;;;;;;;3.17;1.88;;;22.00;48.70;;;;;;5037608;28;20531;-64
2023/04/29 05:48:14;;;;;;;3.15;1.80;;;22.00;48.70;;;;;;5037330;28;20029;-63
2023/04/29 05:50:40;;;;;;;3.10;1.73;;;22.00;48.70;;;;;;5037280;28;20384;-64
2023/04/29 05:53:06;;;;;;;3.20;1.73;;;22.00;48.70;;;;;;5037337;28;20102;-64
2023/04/29 05:55:31;;;;;;;3.33;1.92;;;21.90;48.60;;;;;;5038354;28;20040;-64
2023/04/29 05:57:57;;;;;;;2.78;1.73;;;22.00;48.70;;;;;;5039266;28;20026;-64
2023/04/29 06:00:23;;;;;;;2.78;1.77;;;21.90;48.70;;;;;;5037879;28;20039;-63
2023/04/29 06:02:48;;;;;;;2.70;1.67;;;22.00;48.70;;;;;;5039832;28;20116;-64
2023/04/29 06:05:14;;;;;;;3.00;1.70;;;22.00;48.70;;;;;;5044563;28;20033;-64
2023/04/29 06:07:41;;;;;;;3.25;1.70;;;21.90;48.70;;;;;;5044817;28;20392;-64
2023/04/29 06:10:07;;;;;;;3.50;1.80;;;21.90;48.70;;;;;;5039274;28;20401;-64
2023/04/29 06:12:33;;;;;;;2.38;1.40;;;21.90;48.60;;;;;;5038819;28;20037;-64
2023/04/29 06:14:59;;;;;;;2.38;1.58;;;21.90;48.70;;;;;;5039058;28;20370;-64
2023/04/29 06:17:28;;;;;;;2.47;1.60;;;21.90;48.60;;;;;;5038868;28;20048;-60
2023/04/29 06:19:56;;;;;;;3.22;1.60;;;21.90;48.60;;;;;;5041534;28;20338;-64
2023/04/29 06:22:22;;;;;;;3.20;1.75;;;21.90;48.70;;;;;;5042586;28;20038;-65
2023/04/29 06:24:51;;;;;;;2.83;1.73;;;21.90;48.70;;;;;;5038531;28;20029;-64
2023/04/29 06:27:16;;;;;;;;;;;21.90;48.70;;;;;;5044693;28;20118;-64
2023/04/29 06:29:42;;;;;;;3.00;1.70;;;21.90;48.70;;;;;;5040434;28;20455;-64
2023/04/29 06:32:08;;;;;;;2.95;1.77;;;21.90;48.70;;;;;;5039986;28;20033;-65
2023/04/29 06:34:33;;;;;;;3.00;1.80;;;21.90;48.70;;;;;;5039559;28;20064;-64
2023/04/29 06:36:59;;;;;;;2.55;1.60;;;21.90;48.70;;;;;;5041785;28;20069;-64
2023/04/29 06:39:25;;;;;;;2.58;1.70;;;21.90;48.70;;;;;;5039982;28;20100;-64
2023/04/29 06:41:51;;;;;;;2.63;1.60;;;21.90;48.70;;;;;;5039536;28;20025;-63
2023/04/29 06:44:17;;;;;;;2.67;1.60;;;21.90;48.70;;;;;;5040999;28;20021;-65
2023/04/29 06:46:43;;;;;;;2.75;1.73;;;21.90;48.70;;;;;;5040072;28;20028;-64
2023/04/29 06:49:09;;;;;;;2.95;1.80;;;21.90;48.70;;;;;;5038770;28;20033;-64
2023/04/29 06:51:36;;;;;;;3.08;1.67;;;21.90;48.70;;;;;;5036553;28;20066;-65
2023/04/29 06:54:02;;;;;;;2.70;1.60;;;21.90;48.70;;;;;;5037618;28;20033;-64
2023/04/29 06:56:28;;;;;;;2.28;1.40;;;21.90;48.70;;;;;;5038732;28;20096;-64
2023/04/29 06:58:54;;;;;;;2.60;1.50;;;21.90;48.70;;;;;;5042542;28;20112;-64
2023/04/29 07:01:20;;;;;;;2.63;1.55;;;21.90;48.70;;;;;;5042171;28;20025;-64
2023/04/29 07:03:46;;;;;;;2.30;1.40;;;21.90;48.70;;;;;;5040565;28;20033;-64
2023/04/29 07:06:11;;;;;;;2.50;1.30;;;21.90;48.70;;;;;;5036490;28;20048;-64
2023/04/29 07:08:37;;;;;;;2.30;1.60;;;21.90;48.70;;;;;;5039759;28;20029;-65
2023/04/29 07:11:03;;;;;;;3.22;1.75;;;21.90;48.70;;;;;;5040770;28;20021;-64
2023/04/29 07:13:28;;;;;;;2.70;1.55;;;21.90;48.70;;;;;;5035612;28;20028;-64
2023/04/29 07:15:54;;;;;;;2.90;1.50;;;21.90;48.70;;;;;;5038870;28;20026;-64
2023/04/29 07:18:19;;;;;;;3.08;1.60;;;21.90;48.70;;;;;;5041937;28;20370;-64
2023/04/29 07:20:46;;;;;;;2.75;1.60;;;21.90;48.70;;;;;;5039592;28;20025;-64
2023/04/29 07:23:13;;;;;;;2.95;1.60;;;21.90;48.70;;;;;;5041471;28;20465;-65
2023/04/29 07:25:39;;;;;;;2.97;1.73;;;21.80;48.90;;;;;;5037939;28;20454;-64
2023/04/29 07:28:07;;;;;;;2.70;1.60;;;21.90;48.70;;;;;;5041044;28;20047;-63
2023/04/29 07:30:32;;;;;;;2.15;1.33;;;21.80;48.60;;;;;;5041430;28;20530;-64
2023/04/29 07:32:59;;;;;;;2.65;1.63;;;21.90;48.70;;;;;;5038330;28;20033;-64
2023/04/29 07:35:25;;;;;;;2.50;1.50;;;21.90;48.70;;;;;;5037090;28;20029;-65
2023/04/29 07:37:50;;;;;;;2.28;1.45;;;21.90;48.70;;;;;;5038865;28;20547;-64
2023/04/29 07:40:16;;;;;;;2.53;1.50;;;21.90;48.70;;;;;;5041072;28;20105;-64
2023/04/29 07:42:42;;;;;;;2.50;1.50;;;21.90;48.70;;;;;;5037085;28;20051;-65
2023/04/29 07:45:08;;;;;;;2.17;1.40;;;21.90;48.70;;;;;;5038926;28;20044;-64
2023/04/29 07:47:34;;;;;;;2.92;1.40;;;21.80;48.60;;;;;;5041986;28;20021;-65
2023/04/29 07:50:00;;;;;;;2.60;1.40;;;21.90;48.70;;;;;;5038468;28;20079;-65
2023/04/29 07:52:25;;;;;;;2.17;1.30;;;21.90;48.70;;;;;;5041917;28;20028;-65
2023/04/29 07:54:51;;;;;;;2.03;1.27;;;21.90;48.70;;;;;;5040187;28;20037;-64
2023/04/29 07:57:17;;;;;;;3.47;1.30;;;21.80;48.70;;;;;;5043792;28;20177;-65
2023/04/29 07:59:42;;;;;;;2.20;1.30;;;21.90;48.80;;;;;;5038083;28;20053;-65
2023/04/29 08:02:08;;;;;;;2.78;1.30;;;21.90;48.80;;;;;;5037183;28;20026;-65
2023/04/29 08:04:33;;;;;;;2.35;1.40;;;21.90;48.90;;;;;;5038360;28;20528;-65
2023/04/29 08:06:59;;;;;;;2.65;1.40;;;21.90;49.00;;;;;;5038329;28;20370;-65
2023/04/29 08:09:24;;;;;;;2.20;1.25;;;21.90;49.00;;;;;;5035895;28;20397;-64
2023/04/29 08:11:50;;;;;;;2.50;1.40;;;21.90;49.00;;;;;;5039881;28;20136;-65
2023/04/29 08:14:16;;;;;;;2.40;1.30;;;21.90;49.10;;;;;;5039511;28;20116;-65
2023/04/29 08:16:41;;;;;;;2.50;1.40;;;21.90;49.10;;;;;;5039629;28;20025;-64
2023/04/29 08:19:07;;;;;;;1.75;1.20;;;21.90;49.20;;;;;;5039023;28;20357;-65
2023/04/29 08:21:33;;;;;;;1.95;1.20;;;21.80;49.10;;;;;;5036425;28;20025;-64
2023/04/29 08:23:58;;;;;;;1.63;1.05;;;21.90;49.20;;;;;;5036622;28;20457;-65
2023/04/29 08:26:24;;;;;;;2.75;1.40;;;21.90;49.20;;;;;;5038202;28;20037;-65
2023/04/29 08:28:50;;;;;;;1.95;1.30;;;21.90;49.20;;;;;;5039762;28;20548;-66
2023/04/29 08:31:20;;;;;;;1.63;1.05;;;21.80;49.30;;;;;;5040144;28;20409;-64
2023/04/29 08:33:46;;;;;;;1.40;1.00;;;21.90;49.20;;;;;;5034863;28;20180;-65
2023/04/29 08:36:12;;;;;;;1.70;1.10;;;21.90;49.30;;;;;;5037812;28;20424;-65
2023/04/29 08:38:38;;;;;;;1.60;1.02;;;21.90;49.30;;;;;;5038781;28;20466;-64
2023/04/29 08:41:06;;;;;;;1.75;1.10;;;21.80;49.30;;;;;;5036667;28;20040;-64
2023/04/29 08:43:36;;;;;;;2.03;1.15;;;21.90;49.30;;;;;;5034158;28;20037;-64
2023/04/29 08:46:02;;;;;;;1.58;1.00;;;21.90;49.30;;;;;;5035437;28;20022;-64
2023/04/29 08:48:29;;;;;;;1.58;1.00;;;21.90;49.30;;;;;;5036721;28;20400;-65
2023/04/29 08:50:55;;;;;;;1.92;1.13;;;21.90;49.30;;;;;;5039015;28;20049;-65
2023/04/29 08:53:21;;;;;;;2.17;1.20;;;21.80;49.30;;;;;;5038005;28;20393;-65
2023/04/29 08:55:47;;;;;;;1.92;1.00;;;21.80;49.20;;;;;;5038178;28;20033;-65
2023/04/29 08:58:15;;;;;;;1.77;1.00;;;21.90;49.30;;;;;;5038643;28;20454;-65
2023/04/29 09:00:42;;;;;;;1.23;1.00;;;21.80;49.20;;;;;;5037791;28;20052;-65
2023/04/29 09:03:23;;;;;;;1.88;1.00;;;21.90;49.20;;;;;;5037049;28;20029;-65
2023/04/29 09:05:53;;;;;;;1.60;1.00;;;21.90;49.20;;;;;;5037367;28;20041;-65
2023/04/29 09:08:23;;;;;;;1.38;1.00;;;21.90;49.20;;;;;;5036195;28;20040;-65
2023/04/29 09:10:52;;;;;;;1.73;1.00;;;21.80;49.20;;;;;;5035301;28;20503;-65
2023/04/29 09:13:25;;;;;;;1.25;1.00;;;21.90;49.20;;;;;;5038592;28;20108;-65
2023/04/29 09:15:51;;;;;;;1.65;0.90;;;21.90;49.30;;;;;;5036614;28;20334;-65
2023/04/29 09:18:42;;;;;;;1.38;1.00;;;21.90;49.30;;;;;;5035360;28;20032;-64
2023/04/29 09:21:27;;;;;;;1.42;1.10;;;21.90;49.40;;;;;;5033390;28;20501;-66
2023/04/29 09:23:54;;;;;;;1.67;1.15;;;21.90;49.50;;;;;;5044532;28;20025;-65
2023/04/29 09:26:21;;;;;;;1.73;1.10;;;21.90;49.60;;;;;;5037069;28;20555;-65
2023/04/29 09:29:04;;;;;;;1.75;1.05;;;21.90;49.80;;;;;;5038283;28;20029;-65
2023/04/29 09:31:30;;;;;;;1.55;1.00;;;21.90;50.00;;;;;;5036769;28;20079;-65
2023/04/29 09:33:57;;;;;;;1.85;1.00;;;21.90;50.10;;;;;;5040424;28;20099;-65
2023/04/29 09:36:48;;;;;;;1.33;1.10;;;21.90;50.10;;;;;;5045222;28;20025;-65
2023/04/29 09:39:16;;;;;;;1.95;1.00;;;21.90;50.20;;;;;;5043631;28;20468;-66
2023/04/29 09:42:01;;;;;;;1.92;1.00;;;21.90;50.10;;;;;;5044284;28;20029;-65
2023/04/29 09:44:34;;;;;;;1.50;0.98;;;21.90;50.30;;;;;;5042018;28;20033;-65
2023/04/29 09:47:08;;;;;;;1.75;0.95;;;21.90;50.20;;;;;;5044402;28;20037;-65
2023/04/29 09:49:37;;;;;;;2.28;1.00;;;21.90;50.30;;;;;;5042219;28;20387;-65
2023/04/29 09:52:05;;;;;;;2.08;1.00;;;22.00;50.30;;;;;;5043459;28;20025;-65
2023/04/29 09:54:33;;;;;;;1.95;0.90;;;21.90;50.40;;;;;;5041680;28;20075;-65
2023/04/29 09:56:59;;;;;;;1.65;1.10;;;22.00;50.50;;;;;;5044802;28;20476;-65
2023/04/29 09:59:25;;;;;;;2.28;1.10;;;22.00;50.50;;;;;;5044845;28;20127;-65
2023/04/29 10:01:57;;;;;;;1.02;0.75;;;21.90;50.50;;;;;;5044308;28;20400;-65
2023/04/29 10:04:25;;;;;;;1.95;1.20;;;22.00;50.60;;;;;;5060515;28;20661;-65
2023/04/29 10:06:52;;;;;;;1.33;1.00;;;22.00;50.60;;;;;;5039868;28;20029;-65
2023/04/29 10:09:19;;;;;;;1.63;1.00;;;22.00;50.60;;;;;;5043651;28;20025;-65
2023/04/29 10:11:47;;;;;;;1.52;0.88;;;22.00;50.70;;;;;;5042349;28;20034;-65
2023/04/29 10:14:26;;;;;;;1.33;1.00;;;22.00;50.70;;;;;;5044184;28;20021;-65
2023/04/29 10:17:19;;;;;;;1.60;1.00;;;22.00;50.70;;;;;;5044286;28;20021;-65
2023/04/29 10:19:51;;;;;;;1.50;0.90;;;22.00;50.70;;;;;;5042510;28;20128;-65
2023/04/29 10:22:26;;;;;;;1.85;1.10;;;22.00;50.70;;;;;;5045069;28;20371;-65
2023/04/29 10:24:54;;;;;;;1.73;1.00;;;22.00;50.70;;;;;;5040265;28;20033;-66
2023/04/29 10:27:21;;;;;;;1.33;0.90;;;22.00;50.60;;;;;;5043753;28;20148;-65
2023/04/29 10:29:49;;;;;;;1.00;0.80;;;22.00;50.60;;;;;;5051046;28;20047;-65
2023/04/29 10:32:16;;;;;;;1.77;1.02;;;22.00;50.60;;;;;;5044758;28;20454;-65
2023/04/29 10:34:42;;;;;;;1.45;0.98;;;22.00;50.50;;;;;;5042678;28;20037;-65
2023/04/29 10:37:11;;;;;;;1.10;0.90;;;22.00;50.50;;;;;;5042679;28;20025;-65
2023/04/29 10:39:57;;;;;;;;;;;22.10;50.50;;;;;;5043185;28;20064;-65
2023/04/29 10:42:31;;;;;;;1.92;1.13;;;22.00;50.50;;;;;;5050653;28;19908;-65
2023/04/29 10:45:30;;;;;;;1.60;0.90;;;22.10;50.50;;;;;;5045208;28;20025;-65
2023/04/29 10:48:02;;;;;;;2.40;1.20;;;22.10;50.60;;;;;;5040760;28;20472;-65
2023/04/29 10:50:28;;;;;;;1.50;0.95;;;22.10;50.60;;;;;;5041702;28;20500;-65
2023/04/29 10:52:55;;;;;;;1.23;0.90;;;22.10;50.60;;;;;;5041146;28;20059;-65
2023/04/29 10:55:22;;;;;;;1.55;0.90;;;22.10;50.60;;;;;;5040381;28;20033;-66
2023/04/29 10:57:48;;;;;;;1.38;1.00;;;22.10;50.70;;;;;;5036646;28;20482;-65
2023/04/29 11:00:31;;;;;;;1.10;0.85;;;22.10;50.70;;;;;;5039479;28;20028;-65
2023/04/29 11:02:59;;;;;;;1.35;0.85;;;22.10;50.80;;;;;;5039327;28;20029;-65
2023/04/29 11:05:35;;;;;;;1.75;1.00;;;22.10;50.70;;;;;;5039609;28;20055;-65
2023/04/29 11:08:23;;;;;;;1.30;0.90;;;22.10;50.80;;;;;;5038833;28;20584;-64
2023/04/29 11:10:52;;;;;;;1.40;0.90;;;22.10;50.90;;;;;;5036057;28;20108;-65
2023/04/29 11:13:25;;;;;;;;;;;22.20;51.10;;;;;;5042847;28;20479;-64
2023/04/29 11:16:04;;;;;;;1.38;0.80;;;22.10;51.00;;;;;;5043822;28;19920;-66
2023/04/29 11:18:30;;;;;;;1.42;0.80;;;22.20;50.80;;;;;;5041282;28;20342;-64
2023/04/29 11:21:07;;;;;;;1.52;0.80;;;22.20;50.70;;;;;;5040793;28;20025;-65
2023/04/29 11:23:37;;;;;;;1.65;1.05;;;22.20;50.60;;;;;;5039640;28;20086;-64
2023/04/29 11:26:03;;;;;;;3.17;1.00;;;22.20;50.50;;;;;;5038681;28;20029;-63
2023/04/29 11:28:30;;;;;;;2.25;0.90;;;22.20;50.40;;;;;;5040111;28;20506;-65
2023/04/29 11:30:56;;;;;;;1.60;0.90;;;22.30;50.60;;;;;;5039456;28;20025;-65
2023/04/29 11:33:23;;;;;;;1.17;0.95;;;22.30;50.60;;;;;;5041074;28;20067;-65
2023/04/29 11:35:49;;;;;;;1.27;0.95;;;22.30;50.50;;;;;;5039166;28;20029;-65
2023/04/29 11:38:15;;;;;;;1.30;0.90;;;22.30;50.50;;;;;;5039478;28;20112;-65
2023/04/29 11:40:50;;;;;;;1.10;0.93;;;22.40;50.40;;;;;;5038701;28;20036;-66
2023/04/29 11:43:20;;;;;;;1.65;1.05;;;22.40;50.40;;;;;;5038675;28;20129;-65
2023/04/29 11:45:47;;;;;;;2.25;1.00;;;22.40;50.40;;;;;;5039816;28;20033;-65
2023/04/29 11:48:23;;;;;;;1.00;0.70;;;22.40;50.30;;;;;;5038471;28;20473;-65
2023/04/29 11:51:07;;;;;;;1.05;0.70;;;22.50;50.30;;;;;;5039163;28;20048;-65
2023/04/29 11:53:33;;;;;;;1.40;1.00;;;22.50;50.20;;;;;;5038298;28;20746;-65
2023/04/29 11:55:59;;;;;;;1.45;0.90;;;22.50;50.10;;;;;;5041009;28;20025;-64
2023/04/29 11:58:25;;;;;;;0.82;0.73;;;22.50;50.00;;;;;;5038168;28;20029;-65
2023/04/29 12:00:50;;;;;;;1.25;1.00;;;22.50;49.90;;;;;;5038378;28;20048;-65
2023/04/29 12:03:18;;;;;;;1.13;0.80;;;22.50;49.80;;;;;;5036341;28;20025;-65
2023/04/29 12:05:51;;;;;;;1.10;0.80;;;22.60;49.80;;;;;;5040773;28;20026;-65
2023/04/29 12:08:27;;;;;;;0.93;0.70;;;22.60;49.90;;;;;;5035852;28;20071;-65
2023/04/29 12:10:58;;;;;;;1.40;0.90;;;22.60;49.80;;;;;;5037153;28;20032;-65
2023/04/29 12:13:27;;;;;;;2.17;1.00;;;22.60;49.60;;;;;;5039981;28;20048;-65
2023/04/29 12:15:53;;;;;;;0.82;0.70;;;22.60;49.50;;;;;;5038191;28;20101;-65
2023/04/29 12:18:22;;;;;;;1.10;0.70;;;22.60;49.50;;;;;;5038154;28;20385;-66
2023/04/29 12:20:50;;;;;;;0.80;0.70;;;22.60;49.40;;;;;;5044239;28;20169;-65
2023/04/29 12:23:25;;;;;;;1.02;0.80;;;22.70;49.50;;;;;;5037342;28;20523;-65
2023/04/29 12:25:59;;;;;;;2.08;0.70;;;22.70;49.70;;;;;;5036379;28;20040;-65
2023/04/29 12:28:25;;;;;;;0.98;0.75;;;22.70;49.50;;;;;;5039061;28;20076;-65
2023/04/29 12:30:53;;;;;;;0.70;0.70;;;22.70;49.40;;;;;;5036384;28;20052;-64
2023/04/29 12:33:29;;;;;;;1.02;0.70;;;22.80;49.50;;;;;;5041055;28;20166;-65
2023/04/29 12:35:57;;;;;;;1.10;0.80;;;22.80;49.50;;;;;;5038284;28;20029;-64
2023/04/29 12:38:28;;;;;;;1.33;0.80;;;22.80;49.50;;;;;;5038258;28;20373;-65
2023/04/29 12:40:55;;;;;;;1.80;0.85;;;22.80;49.30;;;;;;5036920;28;20103;-64
2023/04/29 12:43:32;;;;;;;0.98;0.80;;;22.80;49.10;;;;;;5040724;28;20033;-65
2023/04/29 12:46:05;;;;;;;1.00;0.70;;;22.90;49.20;;;;;;5040217;28;20429;-65
2023/04/29 12:48:33;;;;;;;0.95;0.70;;;22.90;49.10;;;;;;5037295;28;20048;-64
2023/04/29 12:50:59;;;;;;;0.60;0.60;;;22.90;49.00;;;;;;5037566;28;20025;-65
2023/04/29 12:53:26;;;;;;;0.73;0.73;;;22.90;49.00;;;;;;5040666;28;20473;-64